CheckWX is a tool to help pilots better visualize weather data.  It is not intended as a substitute for an official pre-flight weather briefing.

11:06:52 UTC

NZWN TAF
Wellington International Airport
Wellington, New Zealand
TAF NZWN 141110Z 1412/1512 03005KT 9999 FEW020 FM141300 17010KT 9999 FEW008 BKN018 TEMPO 1413/1418 BKN008 BECMG 1420/1422 17015G25KT

Jul-14@
12:00 UTC

Jul-14 @ 12:00 UTC

Jul-14@
13:00 UTC

Jul-14 @ 13:00 UTC

TAF NZWN 141110Z 1412/1512 03005KT 9999 FEW020

Expired

Wind
  • 030° at 5 KTS
Cloud Levels
  • Few at 2,000' AGL

Jul-14@
13:00 UTC

Jul-14 @ 13:00 UTC

Jul-14@
18:00 UTC

Jul-14 @ 18:00 UTC

TEMPO 1413/1418 BKN008

Expired

Cloud Levels
  • Broken at 800' AGL

Jul-14@
13:00 UTC

Jul-14 @ 13:00 UTC

Jul-14@
20:00 UTC

Jul-14 @ 20:00 UTC

FM141300 17010KT 9999 FEW008 BKN018

Expired

Wind
  • 170° at 10 KTS
Cloud Levels
  • Few at 800' AGL
  • Broken at 1,800' AGL

Jul-14@
20:00 UTC

Jul-14 @ 20:00 UTC

Jul-15@
12:00 UTC

Jul-15 @ 12:00 UTC

BECMG 1420/1422 17015G25KT

Becoming

Becoming Conditions expected by Tue, Jul 14, 2020 @ 22:00 UTC

Wind
  • 170° at 15 KTS
  • {Gusting to 25 KTS
Cloud Levels
  • Few at 800' AGL
  • Broken at 1,800' AGL